Jump to content

  •  

HORIZON AIRLINES FLIGHT QX2369 FLOWN ON 01-11-2018 BY CAPTAIN TYLER HANUS

Pilot StatsCaptain Tyler Hanus (LDP525) • 294.2 total hours • 82 total flights [View Logbook]
FLIGHT DETAILS
StatusReceived and approved on 2018-01-10 at 19:01:40
Origin AirportSpokane Intl (KGEG) • Spokane, Washington, United States (2,371 feet MSL)
Filed Flight PlanKGEG ODESS J34 MWH J90 NORMY KSEA
Destination AirportSeattle-Tacoma Intl (KSEA) • Seattle, Washington, United States (433 feet MSL)
Alternate AirportSpokane Intl (KGEG) • Spokane, Washington, United States (2,371 feet MSL)
AirlineHorizon Airlines
AircraftDe Havilland DHC-8-400 Dash 8/8Q (DH4 / DHC-8-400)
FS Aircraft UsedMJC8Q400_QXE
Cruising AltitudeFL220
Distance Flown194 nautical miles
Passengers Onboard37 passengers (52.86% full)
DEPARTURE DETAILS
Time Out15:29:53
Taxi Data54,492 lbs total with 5,562 lbs of fuel onboard
Takeoff Data15:41:54 (12 minutes after leaving gate/ramp) • 54,307 lbs total • 19° pitch at 122 knots
Departure METARKGEG 102253Z 23011KT 10SM FEW025 FEW110 FEW200 02/M01 A2990 RMK AO2 SLP142 T00221006
ARRIVAL DETAILS
Landing Data16:46:05 • 52,062 lbs total • 19° pitch doing 115 knots at a rate of -40.98 feet/minute with 3,037 lbs of fuel onboard
Time In16:51:25 (5 minutes after landing)
Ramp Weight51,967 lbs total
Total Fuel Used2,525 lbs
Total Block Time01:19:27 (1.3 hours) while 17 minutes were spent on the ground
Arrival METARKSEA 102353Z 19005KT 10SM -RA BKN022 OVC044 07/03 A3003 RMK AO2 RAB44 SLP176 P0000 60000 T00670033 10072 20061 53005
MISCELLANEOUS DETAILS
LiveDISPATCH Version4.8.3.1
FS Version
FSUIPC Version4.97
OS VersionWindows 7 32-bit
Screen Resolution1360 x 768
Pilot's CommentsNo Comments Reported
FLIGHT MAP